3L2 weather

Sky Ranch Airport
Sandy Valley, Nevada, United States

Public forecast

Using degrees Fahrenheit for public forecast. Weather courtesy of forecast.io.

Closest aviation weather report (METAR) to Sky Ranch Airport

Closest report is Henderson Executive Airport, 26.2 nm (48.6 km) ENE. Retrieved 2020/02/21 07:56 UTC (48 minutes ago):

KHND 210756Z AUTO 17007KT 10SM CLR 07/M09 A3022 RMK AO2 SLP252 T00671094 401670028

Closest aviation forecast (TAF) to Sky Ranch Airport

Closest forecast is Henderson Executive Airport, 26.2 nm (48.6 km) ENE. Retrieved 2020/02/21 06:24 UTC (2 hours ago):

TAF KHND 210520Z 2106/2206 16006KT P6SM SCT250 FM211800 03006KT P6SM SCT250 FM220300 16006KT P6SM SCT120